Time;durP1;ratioP1;P1;durP2;ratioP2;P2;SDS_P1;SDS_P2;PMS_P1;PMS_P2;Temp;Humidity;BMP_temperature;BMP_pressure;BME280_temperature;BME280_humidity;BME280_pressure;Samples;Min_cycle;Max_cycle;Signal;HPM_P1;HPM_P2
2022/01/02 00:01:11;;;;;;;;;;;14.40;60.50;;;;;;5094285;28;19908;-61
2022/01/02 00:03:38;;;;;;;;;;;14.40;60.40;;;;;;5094264;28;19931;-61
2022/01/02 00:06:04;;;;;;;;;;;14.40;60.60;;;;;;5093988;28;19908;-61
2022/01/02 00:08:39;;;;;;;;;;;14.40;60.40;;;;;;5094261;28;20371;-61
2022/01/02 00:11:06;;;;;;;;;;;14.40;60.40;;;;;;5075773;28;20364;-61
2022/01/02 00:13:35;;;;;;;;;;;14.40;60.40;;;;;;5094125;28;19908;-61
2022/01/02 00:16:06;;;;;;;;;;;14.40;60.50;;;;;;5094010;28;19965;-61
2022/01/02 00:18:34;;;;;;;;;;;14.40;60.50;;;;;;5094123;28;19931;-61
2022/01/02 00:21:02;;;;;;;;;;;14.40;60.30;;;;;;5075638;28;20437;-61
2022/01/02 00:23:31;;;;;;;;;;;14.40;60.50;;;;;;5093686;28;20360;-61
2022/01/02 00:26:03;;;;;;;;;;;14.40;60.40;;;;;;5094000;28;19915;-61
2022/01/02 00:28:31;;;;;;;;;;;14.40;60.40;;;;;;5093833;28;20257;-61
2022/01/02 00:30:57;;;;;;;;;;;14.40;60.30;;;;;;5093659;28;19915;-61
2022/01/02 00:33:23;;;;;;;;;;;14.40;60.60;;;;;;5093691;28;19930;-61
2022/01/02 00:35:49;;;;;;;;;;;14.40;60.30;;;;;;5093941;28;19908;-61
2022/01/02 00:38:21;;;;;;;;;;;14.40;60.20;;;;;;5093624;28;19960;-61
2022/01/02 00:40:48;;;;;;;;;;;14.40;60.30;;;;;;5093643;28;20367;-61
2022/01/02 00:43:21;;;;;;;;;;;14.40;60.40;;;;;;5075523;28;19915;-61
2022/01/02 00:45:49;;;;;;;;;;;14.40;60.30;;;;;;5093933;28;19965;-61
2022/01/02 00:48:19;;;;;;;;;;;14.40;60.40;;;;;;5093499;28;20420;-61
2022/01/02 00:50:49;;;;;;;;;;;14.40;60.20;;;;;;5093591;28;19915;-61
2022/01/02 00:53:17;;;;;;;;;;;14.40;60.30;;;;;;5093431;28;20007;-61
2022/01/02 00:55:43;;;;;;;;;;;14.40;60.20;;;;;;5093781;28;19912;-61
2022/01/02 00:58:16;;;;;;;;;;;14.40;60.30;;;;;;5093408;28;20022;-61
2022/01/02 01:00:49;;;;;;;;;;;14.40;60.20;;;;;;5075522;28;19935;-61
2022/01/02 01:03:23;;;;;;;;;;;14.40;60.20;;;;;;5093500;28;19908;-61
2022/01/02 01:05:52;;;;;;;;;;;14.40;60.20;;;;;;5093489;28;19919;-61
2022/01/02 01:08:19;;;;;;;;;;;14.40;60.10;;;;;;5093276;28;20015;-61
2022/01/02 01:10:44;;;;;;;;;;;14.40;60.30;;;;;;5093518;28;19962;-61
2022/01/02 01:13:10;;;;;;;;;;;14.40;60.30;;;;;;5093463;28;19908;-61
2022/01/02 01:15:36;;;;;;;;;;;14.40;60.20;;;;;;5093580;28;19912;-61
2022/01/02 01:18:03;;;;;;;;;;;14.40;60.20;;;;;;5093579;28;20109;-61
2022/01/02 01:20:29;;;;;;;;;;;14.40;60.30;;;;;;5093284;28;19908;-61
2022/01/02 01:22:55;;;;;;;;;;;14.40;60.10;;;;;;5093324;28;19960;-61
2022/01/02 01:25:21;;;;;;;;;;;14.40;60.10;;;;;;5093532;28;19912;-61
2022/01/02 01:27:48;;;;;;;;;;;14.40;60.20;;;;;;5093236;28;19912;-61
2022/01/02 01:30:14;;;;;;;;;;;14.40;60.10;;;;;;5075092;28;19997;-61
2022/01/02 01:32:40;;;;;;;;;;;14.40;60.20;;;;;;5093179;28;19908;-61
2022/01/02 01:35:06;;;;;;;;;;;14.40;60.10;;;;;;5075343;28;20431;-61
2022/01/02 01:37:33;;;;;;;;;;;14.40;60.20;;;;;;5093383;28;19908;-61
2022/01/02 01:39:58;;;;;;;;;;;14.40;60.00;;;;;;5093076;28;20376;-61
2022/01/02 01:42:44;;;;;;;;;;;14.40;60.20;;;;;;5093043;28;19912;-61
2022/01/02 01:47:49;;;;;;;;;;;14.40;60.10;;;;;;5095643;28;20006;-61
2022/01/02 01:50:15;;;;;;;;;;;14.40;60.00;;;;;;5096759;28;19996;-61
2022/01/02 01:52:41;;;;;;;;;;;14.40;60.10;;;;;;5097137;28;20003;-61
2022/01/02 01:55:07;;;;;;;;;;;14.40;60.00;;;;;;5096726;28;19909;-61
2022/01/02 01:57:33;;;;;;;;;;;14.40;60.30;;;;;;5096388;28;19927;-61
2022/01/02 01:59:59;;;;;;;;;;;14.40;60.00;;;;;;5096636;28;19954;-61
2022/01/02 02:02:25;;;;;;;;;;;14.40;60.10;;;;;;5078362;28;19991;-61
2022/01/02 02:04:50;;;;;;;;;;;14.40;60.20;;;;;;5096467;28;20049;-60
2022/01/02 02:07:16;;;;;;;;;;;14.40;60.20;;;;;;5096405;28;19912;-62
2022/01/02 02:10:05;;;;;;;;;;;14.40;60.10;;;;;;5096446;28;19912;-61
2022/01/02 02:12:30;;;;;;;;;;;14.40;60.10;;;;;;5078200;28;19912;-61
2022/01/02 02:14:56;;;;;;;;;;;14.40;60.00;;;;;;5096577;28;20260;-61
2022/01/02 02:17:22;;;;;;;;;;;14.40;60.20;;;;;;5096447;28;19911;-62
2022/01/02 02:19:49;;;;;;;;;;;14.40;60.10;;;;;;5096224;28;20006;-61
2022/01/02 02:22:14;;;;;;;;;;;14.40;60.10;;;;;;5096210;28;19908;-61
2022/01/02 02:24:40;;;;;;;;;;;14.40;60.10;;;;;;5096478;28;19917;-61
2022/01/02 02:27:06;;;;;;;;;;;14.40;60.10;;;;;;5096159;28;19908;-61
2022/01/02 02:29:31;;;;;;;;;;;14.40;60.10;;;;;;5096265;28;19939;-61
2022/01/02 02:31:58;;;;;;;;;;;14.40;60.30;;;;;;5096146;28;20283;-61
2022/01/02 02:34:23;;;;;;;;;;;14.40;60.00;;;;;;5095991;28;19983;-61
2022/01/02 02:36:49;;;;;;;;;;;14.40;60.20;;;;;;5096201;28;19908;-61
2022/01/02 02:39:14;;;;;;;;;;;14.40;60.10;;;;;;5095899;28;19908;-60
2022/01/02 02:41:42;;;;;;;;;;;14.40;60.00;;;;;;5095852;28;19916;-61
2022/01/02 02:44:19;;;;;;;;;;;14.40;60.10;;;;;;5096112;28;19920;-61
2022/01/02 02:49:28;;;;;;;;;;;14.40;60.20;;;;;;5095842;28;20016;-61
2022/01/02 02:51:59;;;;;;;;;;;14.40;60.00;;;;;;5096026;28;20359;-61
2022/01/02 02:54:25;;;;;;;;;;;14.40;60.10;;;;;;5095810;28;19954;-61
2022/01/02 02:59:20;;;;;;;;;;;14.40;60.00;;;;;;5095795;28;20002;-61
2022/01/02 03:01:45;;;;;;;;;;;14.40;60.30;;;;;;5095819;28;20034;-61
2022/01/02 03:04:11;;;;;;;;;;;14.40;60.20;;;;;;5095731;28;19908;-61
2022/01/02 03:06:36;;;;;;;;;;;14.40;60.20;;;;;;5095343;28;20386;-61
2022/01/02 03:09:10;;;;;;;;;;;14.40;60.20;;;;;;5095561;28;19990;-60
2022/01/02 03:11:39;;;;;;;;;;;14.40;60.20;;;;;;5095582;28;19908;-61
2022/01/02 03:14:06;;;;;;;;;;;14.40;60.10;;;;;;5077175;28;20311;-60
2022/01/02 03:16:31;;;;;;;;;;;14.40;60.30;;;;;;5095145;28;20352;-61
2022/01/02 03:18:57;;;;;;;;;;;14.40;60.20;;;;;;5095187;28;19965;-61
2022/01/02 03:21:22;;;;;;;;;;;14.40;60.20;;;;;;5095176;28;20374;-61
2022/01/02 03:23:48;;;;;;;;;;;14.40;60.20;;;;;;5095226;28;19908;-61
2022/01/02 03:26:14;;;;;;;;;;;14.40;60.30;;;;;;5095252;28;19915;-61
2022/01/02 03:28:39;;;;;;;;;;;14.40;60.20;;;;;;5095139;28;20485;-61
2022/01/02 03:31:05;;;;;;;;;;;14.40;60.20;;;;;;5094886;28;19955;-61
2022/01/02 03:33:31;;;;;;;;;;;14.40;60.30;;;;;;5076784;28;19908;-61
2022/01/02 03:35:56;;;;;;;;;;;14.40;60.30;;;;;;5094804;28;19915;-61
2022/01/02 03:38:21;;;;;;;;;;;14.40;60.10;;;;;;5095085;28;19966;-61
2022/01/02 03:40:47;;;;;;;;;;;14.40;60.40;;;;;;5094967;28;19908;-61
2022/01/02 03:43:12;;;;;;;;;;;14.40;60.30;;;;;;5094779;28;19915;-61
2022/01/02 03:45:38;;;;;;;;;;;14.30;60.30;;;;;;5094604;28;19909;-61
2022/01/02 03:48:03;;;;;;;;;;;14.40;60.30;;;;;;5094608;28;19928;-61
2022/01/02 03:50:29;;;;;;;;;;;14.40;60.40;;;;;;5094749;28;19908;-61
2022/01/02 03:52:54;;;;;;;;;;;14.40;60.40;;;;;;5076343;28;19908;-61
2022/01/02 03:55:20;;;;;;;;;;;14.40;60.40;;;;;;5094478;28;19915;-61
2022/01/02 03:57:46;;;;;;;;;;;14.40;60.40;;;;;;5094273;28;19927;-61
2022/01/02 04:00:13;;;;;;;;;;;14.40;60.30;;;;;;5094618;28;19919;-60
2022/01/02 04:02:38;;;;;;;;;;;14.40;60.50;;;;;;5094244;28;20053;-61
2022/01/02 04:05:05;;;;;;;;;;;14.40;60.40;;;;;;5094233;28;20378;-61
2022/01/02 04:07:31;;;;;;;;;;;14.30;60.30;;;;;;5094222;28;19916;-61
2022/01/02 04:10:01;;;;;;;;;;;14.40;60.50;;;;;;5093706;28;19954;-61
2022/01/02 04:12:26;;;;;;;;;;;14.40;60.30;;;;;;5094175;28;19916;-61
2022/01/02 04:14:51;;;;;;;;;;;14.30;60.40;;;;;;5094090;28;19912;-61
2022/01/02 04:17:17;;;;;;;;;;;14.40;60.60;;;;;;5094109;28;19934;-61
2022/01/02 04:19:42;;;;;;;;;;;14.40;60.50;;;;;;5094268;28;19908;-61
2022/01/02 04:22:08;;;;;;;;;;;14.30;60.60;;;;;;5094009;28;20444;-61
2022/01/02 04:24:33;;;;;;;;;;;14.30;60.60;;;;;;5094014;28;20355;-61
2022/01/02 04:26:59;;;;;;;;;;;14.30;60.40;;;;;;5093854;28;19909;-61
2022/01/02 04:29:24;;;;;;;;;;;14.30;60.70;;;;;;5093867;28;19919;-61
2022/01/02 04:31:49;;;;;;;;;;;14.30;60.50;;;;;;5094031;28;19908;-61
2022/01/02 04:34:15;;;;;;;;;;;14.40;60.40;;;;;;5093797;28;19960;-61
2022/01/02 04:36:40;;;;;;;;;;;14.30;60.60;;;;;;5094018;28;19953;-61
2022/01/02 04:39:06;;;;;;;;;;;14.30;60.70;;;;;;5093850;28;19908;-61
2022/01/02 04:41:31;;;;;;;;;;;14.30;60.50;;;;;;5093691;28;19969;-60
2022/01/02 04:43:57;;;;;;;;;;;14.30;60.60;;;;;;5093476;28;19916;-61
2022/01/02 04:46:22;;;;;;;;;;;14.30;60.70;;;;;;5093607;28;19923;-60
2022/01/02 04:48:48;;;;;;;;;;;14.40;60.70;;;;;;5075682;28;20352;-61
2022/01/02 04:51:13;;;;;;;;;;;14.30;60.60;;;;;;5093594;28;19909;-61
2022/01/02 04:53:46;;;;;;;;;;;14.30;60.70;;;;;;5093655;28;20002;-61
2022/01/02 04:56:12;;;;;;;;;;;14.30;60.60;;;;;;5093658;28;19908;-61
2022/01/02 04:58:37;;;;;;;;;;;14.40;60.60;;;;;;5093325;28;19927;-61
2022/01/02 05:01:02;;;;;;;;;;;14.30;60.80;;;;;;5093451;28;19909;-60
2022/01/02 05:03:28;;;;;;;;;;;14.30;60.80;;;;;;5093440;28;19912;-61
2022/01/02 05:05:53;;;;;;;;;;;14.30;60.80;;;;;;5093443;28;19912;-61
2022/01/02 05:08:19;;;;;;;;;;;14.30;60.70;;;;;;5093320;28;19962;-61
2022/01/02 05:10:44;;;;;;;;;;;14.30;60.60;;;;;;5093784;28;19912;-61
2022/01/02 05:13:10;;;;;;;;;;;14.30;60.80;;;;;;5093349;28;19996;-61
2022/01/02 05:15:35;;;;;;;;;;;14.30;60.60;;;;;;5093450;28;20169;-61
2022/01/02 05:18:01;;;;;;;;;;;14.30;60.80;;;;;;5075310;28;19999;-61
2022/01/02 05:20:26;;;;;;;;;;;14.30;60.80;;;;;;5093425;28;19954;-61
2022/01/02 05:22:52;;;;;;;;;;;14.30;60.80;;;;;;5096332;28;20347;-61
2022/01/02 05:25:18;;;;;;;;;;;14.30;60.60;;;;;;5097699;28;19954;-61
2022/01/02 05:27:43;;;;;;;;;;;14.30;60.60;;;;;;5097175;28;19955;-61
2022/01/02 05:30:09;;;;;;;;;;;14.30;60.70;;;;;;5097344;28;19915;-61
2022/01/02 05:32:34;;;;;;;;;;;14.30;60.60;;;;;;5097235;28;20367;-61
2022/01/02 05:35:02;;;;;;;;;;;14.30;61.00;;;;;;5097355;28;19960;-61
2022/01/02 05:37:27;;;;;;;;;;;14.30;60.80;;;;;;5079013;28;19908;-61
2022/01/02 05:39:52;;;;;;;;;;;14.30;60.50;;;;;;5097183;28;19915;-60
2022/01/02 05:42:18;;;;;;;;;;;14.30;60.70;;;;;;5097154;28;19912;-61
2022/01/02 05:44:43;;;;;;;;;;;14.30;60.70;;;;;;5097452;28;20007;-61
2022/01/02 05:47:09;;;;;;;;;;;14.30;60.70;;;;;;5097106;28;19912;-61
2022/01/02 05:49:34;;;;;;;;;;;14.30;60.60;;;;;;5097239;28;19908;-61
2022/01/02 05:52:00;;;;;;;;;;;14.30;60.60;;;;;;5096915;28;20382;-61
2022/01/02 05:54:25;;;;;;;;;;;14.30;60.50;;;;;;5096860;28;19998;-61
2022/01/02 05:56:51;;;;;;;;;;;14.30;60.70;;;;;;5096801;28;20370;-61
2022/01/02 05:59:16;;;;;;;;;;;14.30;60.60;;;;;;5097072;28;20359;-61
2022/01/02 06:01:41;;;;;;;;;;;14.30;60.70;;;;;;5096932;28;19993;-61
2022/01/02 06:04:07;;;;;;;;;;;14.30;60.60;;;;;;5096802;28;20020;-61
2022/01/02 06:06:32;;;;;;;;;;;14.30;60.50;;;;;;5096749;28;19908;-61
2022/01/02 06:08:58;;;;;;;;;;;14.30;60.60;;;;;;5096556;28;19916;-61
2022/01/02 06:11:23;;;;;;;;;;;14.30;60.70;;;;;;5096560;28;19908;-61
2022/01/02 06:13:49;;;;;;;;;;;14.30;60.60;;;;;;5096486;28;19914;-61
2022/01/02 06:16:14;;;;;;;;;;;14.30;60.70;;;;;;5096615;28;20282;-61
2022/01/02 06:18:40;;;;;;;;;;;14.30;60.80;;;;;;5096421;28;20271;-61
2022/01/02 06:21:05;;;;;;;;;;;14.30;60.80;;;;;;5096379;28;19962;-61
2022/01/02 06:23:31;;;;;;;;;;;14.30;60.60;;;;;;5096307;28;20420;-61
2022/01/02 06:25:56;;;;;;;;;;;14.30;60.70;;;;;;5078031;28;19915;-61
2022/01/02 06:28:22;;;;;;;;;;;14.30;60.70;;;;;;5078243;28;19926;-61
2022/01/02 06:30:47;;;;;;;;;;;14.30;60.60;;;;;;5077996;28;19915;-61
2022/01/02 06:33:13;;;;;;;;;;;14.30;60.90;;;;;;5095526;28;19919;-61
2022/01/02 06:35:38;;;;;;;;;;;14.30;60.70;;;;;;5096327;28;20270;-61
2022/01/02 06:38:14;;;;;;;;;;;14.30;61.10;;;;;;5096077;28;19908;-61
2022/01/02 06:40:39;;;;;;;;;;;14.30;60.80;;;;;;5096203;28;19970;-61
2022/01/02 06:43:05;;;;;;;;;;;14.30;60.90;;;;;;5096148;28;20271;-60
2022/01/02 06:45:30;;;;;;;;;;;14.30;60.90;;;;;;5095935;28;20290;-61
2022/01/02 06:47:56;;;;;;;;;;;14.30;60.90;;;;;;5095663;28;19916;-61
2022/01/02 06:50:21;;;;;;;;;;;14.30;60.90;;;;;;5096091;28;20222;-61
2022/01/02 06:52:47;;;;;;;;;;;14.30;60.90;;;;;;5095989;28;20351;-61
2022/01/02 06:55:12;;;;;;;;;;;14.30;61.00;;;;;;5095639;28;20290;-61
2022/01/02 06:57:38;;;;;;;;;;;14.30;60.90;;;;;;5073992;28;19916;-61
2022/01/02 07:00:06;;;;;;;;;;;14.30;60.80;;;;;;5075709;28;19991;-61
2022/01/02 07:02:32;;;;;;;;;;;14.30;61.00;;;;;;5075350;28;19954;-61
2022/01/02 07:04:58;;;;;;;;;;;14.30;61.00;;;;;;5075569;28;19909;-61
2022/01/02 07:07:23;;;;;;;;;;;14.30;60.90;;;;;;5075103;28;20360;-61
2022/01/02 07:09:49;;;;;;;;;;;14.30;61.00;;;;;;5075081;28;20003;-61
2022/01/02 07:12:14;;;;;;;;;;;14.30;61.10;;;;;;5073897;28;19916;-61
2022/01/02 07:14:40;;;;;;;;;;;14.30;61.00;;;;;;5075011;28;20368;-61
2022/01/02 07:17:05;;;;;;;;;;;14.30;61.00;;;;;;5073783;28;19908;-60
2022/01/02 07:19:30;;;;;;;;;;;14.30;61.20;;;;;;5073701;28;19908;-61
2022/01/02 07:21:58;;;;;;;;;;;14.30;61.00;;;;;;5075189;28;19915;-61
2022/01/02 07:24:24;;;;;;;;;;;14.30;61.00;;;;;;5074859;28;20374;-61
2022/01/02 07:26:49;;;;;;;;;;;14.30;61.30;;;;;;5075027;28;19909;-61
2022/01/02 07:29:15;;;;;;;;;;;14.30;61.10;;;;;;5074816;28;19940;-61
2022/01/02 07:31:41;;;;;;;;;;;14.30;61.10;;;;;;5074989;28;19908;-61
2022/01/02 07:34:06;;;;;;;;;;;14.30;61.40;;;;;;5075045;28;19908;-61
2022/01/02 07:36:32;;;;;;;;;;;14.30;61.20;;;;;;5074799;28;19912;-61
2022/01/02 07:38:57;;;;;;;;;;;14.30;61.30;;;;;;5074540;28;19942;-61
2022/01/02 07:41:23;;;;;;;;;;;14.30;61.40;;;;;;5074767;28;19912;-60
2022/01/02 07:43:49;;;;;;;;;;;14.30;61.20;;;;;;5074378;28;19916;-61
2022/01/02 07:46:14;;;;;;;;;;;14.30;61.20;;;;;;5074178;28;19909;-60
2022/01/02 07:48:40;;;;;;;;;;;14.30;61.30;;;;;;5074614;28;20306;-61
2022/01/02 07:51:05;;;;;;;;;;;14.30;61.30;;;;;;5074553;28;19963;-61
2022/01/02 07:53:31;;;;;;;;;;;14.30;61.20;;;;;;5074290;28;19909;-61
2022/01/02 07:55:56;;;;;;;;;;;14.30;61.40;;;;;;5074380;28;20264;-61
2022/01/02 07:58:22;;;;;;;;;;;14.30;61.20;;;;;;5088936;28;20053;-61
2022/01/02 08:00:48;;;;;;;;;;;14.30;61.40;;;;;;5076126;28;19968;-60
2022/01/02 08:03:13;;;;;;;;;;;14.20;61.40;;;;;;5076181;28;20248;-61
2022/01/02 08:05:39;;;;;;;;;;;14.30;61.20;;;;;;5094580;28;19908;-61
2022/01/02 08:08:05;;;;;;;;;;;14.30;61.30;;;;;;5094268;28;19920;-61
2022/01/02 08:10:30;;;;;;;;;;;14.30;61.30;;;;;;5094184;28;20006;-61
2022/01/02 08:12:55;;;;;;;;;;;14.30;61.20;;;;;;5094066;28;19908;-61
2022/01/02 08:15:21;;;;;;;;;;;14.30;61.20;;;;;;5075971;28;19912;-61
2022/01/02 08:17:47;;;;;;;;;;;14.30;61.20;;;;;;5094077;28;19961;-61
2022/01/02 08:20:12;;;;;;;;;;;14.30;61.30;;;;;;5094041;28;19955;-60
2022/01/02 08:22:38;;;;;;;;;;;14.30;61.20;;;;;;5093815;28;20398;-60
2022/01/02 08:25:05;;;;;;;;;;;14.30;61.30;;;;;;5093659;28;20367;-60
2022/01/02 08:27:30;;;;;;;;;;;14.30;61.20;;;;;;5093935;28;19913;-60
2022/01/02 08:29:56;;;;;;;;;;;14.20;61.30;;;;;;5093927;28;19919;-61
2022/01/02 08:32:21;;;;;;;;;;;14.30;61.30;;;;;;5093956;28;19909;-61
2022/01/02 08:34:47;;;;;;;;;;;14.30;61.20;;;;;;5093867;28;19953;-61
2022/01/02 08:37:15;;;;;;;;;;;14.30;61.40;;;;;;5093924;28;19916;-61
2022/01/02 08:39:42;;;;;;;;;;;14.30;61.10;;;;;;5094066;28;19908;-61
2022/01/02 08:42:08;;;;;;;;;;;14.30;61.20;;;;;;5094016;28;19909;-61
2022/01/02 08:44:34;;;;;;;;;;;14.30;61.30;;;;;;5093905;28;19915;-61
2022/01/02 08:46:59;;;;;;;;;;;14.30;61.20;;;;;;5094011;28;19908;-61
2022/01/02 08:49:25;;;;;;;;;;;14.30;61.30;;;;;;5093641;28;20379;-61
2022/01/02 08:51:50;;;;;;;;;;;14.30;61.30;;;;;;5093519;28;19908;-61
2022/01/02 08:54:16;;;;;;;;;;;14.30;61.30;;;;;;5093594;28;19912;-61
2022/01/02 08:56:41;;;;;;;;;;;14.30;61.20;;;;;;5093183;28;19908;-61
2022/01/02 08:59:07;;;;;;;;;;;14.30;61.20;;;;;;5093494;28;20398;-61
2022/01/02 09:01:32;;;;;;;;;;;14.30;61.10;;;;;;5093772;28;20314;-60
2022/01/02 09:03:58;;;;;;;;;;;14.30;61.20;;;;;;5093381;28;19955;-61
2022/01/02 09:06:23;;;;;;;;;;;14.30;61.30;;;;;;5093424;28;19908;-60
2022/01/02 09:08:49;;;;;;;;;;;14.30;61.10;;;;;;5093334;28;19969;-61
2022/01/02 09:11:14;;;;;;;;;;;14.30;61.10;;;;;;5093352;28;19908;-60
2022/01/02 09:13:40;;;;;;;;;;;14.30;61.20;;;;;;5075250;28;19999;-61
2022/01/02 09:16:05;;;;;;;;;;;14.30;61.20;;;;;;5093385;28;19931;-61
2022/01/02 09:18:33;;;;;;;;;;;14.30;61.10;;;;;;5093219;28;19915;-61
2022/01/02 09:20:59;;;;;;;;;;;14.30;61.20;;;;;;5093487;28;19920;-62
2022/01/02 09:23:24;;;;;;;;;;;14.30;61.00;;;;;;5093341;28;19909;-61
2022/01/02 09:25:50;;;;;;;;;;;14.30;60.90;;;;;;5093320;28;20370;-61
2022/01/02 09:28:15;;;;;;;;;;;14.30;60.80;;;;;;5075315;28;19916;-61
2022/01/02 09:30:41;;;;;;;;;;;14.30;60.90;;;;;;5093425;28;19908;-60
2022/01/02 09:33:08;;;;;;;;;;;14.30;60.90;;;;;;5093439;28;20279;-60
2022/01/02 09:35:35;;;;;;;;;;;14.30;60.90;;;;;;5093610;28;19908;-61
2022/01/02 09:38:00;;;;;;;;;;;14.30;61.00;;;;;;5093480;28;19914;-61
2022/01/02 09:40:27;;;;;;;;;;;14.30;60.70;;;;;;5093248;28;19908;-61
2022/01/02 09:42:54;;;;;;;;;;;14.30;60.70;;;;;;5093275;28;20008;-61
2022/01/02 09:45:20;;;;;;;;;;;14.30;60.80;;;;;;5093796;28;19908;-60
2022/01/02 09:47:45;;;;;;;;;;;14.40;60.90;;;;;;5093298;28;19923;-60
2022/01/02 09:50:11;;;;;;;;;;;14.30;60.90;;;;;;5092956;28;20371;-60
2022/01/02 09:52:37;;;;;;;;;;;14.30;60.90;;;;;;5093080;28;20387;-60
2022/01/02 09:55:03;;;;;;;;;;;14.40;60.80;;;;;;5093167;28;20432;-60
2022/01/02 09:57:28;;;;;;;;;;;14.40;60.80;;;;;;5092638;28;19916;-60
2022/01/02 09:59:56;;;;;;;;;;;14.30;60.90;;;;;;5093123;28;20352;-60
2022/01/02 10:02:21;;;;;;;;;;;14.30;60.90;;;;;;5093339;28;20328;-60
2022/01/02 10:04:47;;;;;;;;;;;14.30;60.90;;;;;;5093587;28;19954;-60
2022/01/02 10:07:25;;;;;;;;;;;14.40;60.80;;;;;;5093070;28;20294;-61
2022/01/02 10:09:50;;;;;;;;;;;14.40;60.70;;;;;;5096611;28;19958;-60
2022/01/02 10:12:19;;;;;;;;;;;14.30;60.80;;;;;;5096627;28;19908;-60
2022/01/02 10:14:44;;;;;;;;;;;14.40;61.10;;;;;;5096632;28;20325;-60
2022/01/02 10:17:09;;;;;;;;;;;14.40;61.00;;;;;;5096658;28;19912;-60
2022/01/02 10:19:38;;;;;;;;;;;14.40;60.90;;;;;;5096382;28;19908;-60
2022/01/02 10:22:05;;;;;;;;;;;14.40;60.90;;;;;;5096333;28;19908;-60
2022/01/02 10:24:31;;;;;;;;;;;14.40;61.10;;;;;;5096325;28;19973;-60
2022/01/02 10:27:14;;;;;;;;;;;14.40;61.00;;;;;;5096291;28;20363;-60
2022/01/02 10:29:39;;;;;;;;;;;14.40;60.90;;;;;;5096239;28;19916;-60
2022/01/02 10:32:23;;;;;;;;;;;14.40;60.90;;;;;;5096111;28;19931;-60
2022/01/02 10:34:49;;;;;;;;;;;14.40;60.90;;;;;;5096047;28;19908;-60
2022/01/02 10:37:25;;;;;;;;;;;14.40;61.00;;;;;;5096318;28;19908;-60
2022/01/02 10:39:51;;;;;;;;;;;14.40;60.90;;;;;;5096166;28;20363;-60
2022/01/02 10:42:17;;;;;;;;;;;14.40;60.80;;;;;;5096060;28;19962;-61
2022/01/02 10:44:42;;;;;;;;;;;14.40;60.80;;;;;;5096286;28;19994;-60
2022/01/02 10:47:15;;;;;;;;;;;14.40;60.90;;;;;;5095972;28;19958;-60
2022/01/02 10:49:58;;;;;;;;;;;14.40;60.80;;;;;;5096292;28;20276;-60
2022/01/02 10:52:24;;;;;;;;;;;14.40;60.80;;;;;;5096071;28;19915;-60
2022/01/02 10:54:50;;;;;;;;;;;14.40;60.80;;;;;;5095812;28;19912;-60
2022/01/02 10:57:15;;;;;;;;;;;14.40;60.80;;;;;;5095662;28;19919;-60
2022/01/02 10:59:43;;;;;;;;;;;14.40;60.80;;;;;;5095077;28;22221;-60
2022/01/02 11:02:14;;;;;;;;;;;14.40;60.80;;;;;;5095721;28;20386;-60
2022/01/02 11:04:45;;;;;;;;;;;14.50;61.00;;;;;;5095663;28;19930;-60
2022/01/02 11:07:11;;;;;;;;;;;14.50;60.70;;;;;;5095480;28;20338;-60
2022/01/02 11:09:37;;;;;;;;;;;14.50;60.90;;;;;;5095610;28;19916;-60
2022/01/02 11:12:02;;;;;;;;;;;14.50;60.90;;;;;;5077598;28;20363;-61
2022/01/02 11:14:28;;;;;;;;;;;14.50;60.90;;;;;;5095531;28;20338;-60
2022/01/02 11:16:53;;;;;;;;;;;14.50;61.00;;;;;;5095360;28;19962;-60
2022/01/02 11:19:19;;;;;;;;;;;14.50;60.90;;;;;;5077103;28;19998;-61
2022/01/02 11:21:46;;;;;;;;;;;14.50;60.90;;;;;;5095244;28;19908;-61
2022/01/02 11:24:18;;;;;;;;;;;14.50;61.00;;;;;;5095377;28;19908;-61
2022/01/02 11:26:54;;;;;;;;;;;14.50;60.90;;;;;;5095001;28;19953;-61
2022/01/02 11:29:26;;;;;;;;;;;14.50;61.00;;;;;;5094886;28;20425;-61
2022/01/02 11:31:52;;;;;;;;;;;14.50;60.80;;;;;;5095119;28;19908;-61
2022/01/02 11:34:28;;;;;;;;;;;14.50;60.80;;;;;;5094931;28;19915;-60
2022/01/02 11:37:13;;;;;;;;;;;14.50;61.00;;;;;;5094817;28;20402;-61
2022/01/02 11:40:02;;;;;;;;;;;14.50;60.90;;;;;;5094701;28;19908;-61
2022/01/02 11:42:34;;;;;;;;;;;14.50;61.00;;;;;;5094899;28;19916;-61
2022/01/02 11:44:59;;;;;;;;;;;14.50;61.00;;;;;;5094797;28;20290;-61
2022/01/02 11:47:46;;;;;;;;;;;14.50;60.80;;;;;;5094717;28;19915;-61
2022/01/02 11:50:34;;;;;;;;;;;14.50;60.80;;;;;;5094666;28;19919;-61
2022/01/02 11:53:09;;;;;;;;;;;14.50;60.70;;;;;;5094722;28;19916;-61
2022/01/02 11:55:34;;;;;;;;;;;14.50;60.90;;;;;;5094721;28;19941;-61
2022/01/02 11:58:00;;;;;;;;;;;14.50;60.70;;;;;;5094479;28;19920;-60
2022/01/02 12:00:32;;;;;;;;;;;14.50;60.90;;;;;;5094550;28;19947;-61
2022/01/02 12:02:57;;;;;;;;;;;14.50;60.80;;;;;;5094333;28;20006;-60
2022/01/02 12:05:23;;;;;;;;;;;14.50;60.80;;;;;;5094620;28;20334;-61
2022/01/02 12:07:53;;;;;;;;;;;14.50;60.90;;;;;;5094634;28;19997;-61
2022/01/02 12:10:26;;;;;;;;;;;14.50;60.90;;;;;;5094680;28;19915;-61
2022/01/02 12:13:13;;;;;;;;;;;14.50;60.80;;;;;;5094357;28;19919;-61
2022/01/02 12:15:39;;;;;;;;;;;14.50;61.00;;;;;;5094169;28;19962;-61
2022/01/02 12:18:07;;;;;;;;;;;14.50;61.00;;;;;;5094301;28;19952;-61
2022/01/02 12:20:51;;;;;;;;;;;14.50;60.90;;;;;;5094053;28;19972;-61
2022/01/02 12:23:42;;;;;;;;;;;14.50;60.90;;;;;;5093989;28;19951;-61
2022/01/02 12:26:11;;;;;;;;;;;14.50;60.90;;;;;;5093986;28;20348;-61
2022/01/02 12:28:41;;;;;;;;;;;14.50;61.00;;;;;;5094111;28;19966;-61
2022/01/02 12:31:08;;;;;;;;;;;14.50;61.00;;;;;;5093424;28;19908;-61
2022/01/02 12:33:35;;;;;;;;;;;14.50;61.00;;;;;;5093722;28;19915;-61
2022/01/02 12:36:15;;;;;;;;;;;14.50;60.90;;;;;;5093920;28;19912;-61
2022/01/02 12:38:52;;;;;;;;;;;14.50;61.00;;;;;;5093889;28;19915;-61
2022/01/02 12:41:23;;;;;;;;;;;14.50;60.90;;;;;;5093896;28;19912;-61
2022/01/02 12:44:00;;;;;;;;;;;14.50;60.80;;;;;;5093768;28;19908;-60
2022/01/02 12:46:32;;;;;;;;;;;14.50;61.00;;;;;;5093353;28;19954;-61
2022/01/02 12:48:57;;;;;;;;;;;14.50;60.90;;;;;;5093493;28;19920;-60
2022/01/02 12:51:27;;;;;;;;;;;14.50;60.90;;;;;;5093535;28;19918;-61
2022/01/02 12:54:18;;;;;;;;;;;14.50;60.90;;;;;;5093502;28;19976;-61
2022/01/02 12:56:48;;;;;;;;;;;14.50;60.90;;;;;;5090235;28;19916;-60
2022/01/02 12:59:40;;;;;;;;;;;14.50;60.80;;;;;;5093289;28;19928;-61
2022/01/02 13:02:10;;;;;;;;;;;14.50;61.00;;;;;;5090501;28;19915;-60
2022/01/02 13:04:36;;;;;;;;;;;14.50;60.90;;;;;;5093444;28;19908;-61
2022/01/02 13:07:03;;;;;;;;;;;14.40;60.80;;;;;;5093780;28;19994;-60
2022/01/02 13:09:28;;;;;;;;;;;14.50;60.80;;;;;;5093289;28;19961;-61
2022/01/02 13:11:54;;;;;;;;;;;14.40;60.80;;;;;;5093286;28;19961;-60
2022/01/02 13:14:29;;;;;;;;;;;14.40;60.80;;;;;;5093564;28;19914;-60
2022/01/02 13:16:54;;;;;;;;;;;14.40;60.90;;;;;;5093306;28;19908;-61
2022/01/02 13:19:20;;;;;;;;;;;14.50;60.80;;;;;;5093298;28;20338;-60
2022/01/02 13:21:45;;;;;;;;;;;14.50;60.70;;;;;;5075205;28;19908;-61
2022/01/02 13:24:21;;;;;;;;;;;14.50;61.00;;;;;;5093513;28;19908;-61
2022/01/02 13:26:46;;;;;;;;;;;14.50;60.70;;;;;;5093257;28;19954;-61
2022/01/02 13:29:18;;;;;;;;;;;14.50;60.80;;;;;;5075030;28;19920;-61
2022/01/02 13:31:43;;;;;;;;;;;14.50;60.80;;;;;;5093432;28;20007;-60
2022/01/02 13:34:20;;;;;;;;;;;14.40;60.80;;;;;;5093354;28;19951;-61
2022/01/02 13:36:58;;;;;;;;;;;14.50;61.10;;;;;;5093447;28;19948;-61
2022/01/02 13:39:37;;;;;;;;;;;14.50;60.80;;;;;;5093209;28;19915;-61
2022/01/02 13:42:03;;;;;;;;;;;14.50;60.70;;;;;;5093559;28;19915;-61
2022/01/02 13:44:35;;;;;;;;;;;14.50;60.90;;;;;;5097130;28;19908;-61
2022/01/02 13:47:00;;;;;;;;;;;14.50;60.80;;;;;;5078945;28;20003;-60
2022/01/02 13:49:38;;;;;;;;;;;14.50;60.90;;;;;;5096934;28;20007;-60
2022/01/02 13:52:04;;;;;;;;;;;14.50;60.90;;;;;;5097182;28;19908;-60
2022/01/02 13:54:29;;;;;;;;;;;14.40;60.80;;;;;;5096877;28;19908;-60
2022/01/02 13:56:56;;;;;;;;;;;14.40;60.70;;;;;;5096840;28;19912;-60
2022/01/02 13:59:25;;;;;;;;;;;14.50;60.80;;;;;;5096871;28;20320;-60
2022/01/02 14:01:50;;;;;;;;;;;14.50;60.80;;;;;;5096799;28;19939;-61
2022/01/02 14:04:17;;;;;;;;;;;14.50;60.90;;;;;;5096640;28;19912;-60
2022/01/02 14:06:42;;;;;;;;;;;14.40;60.70;;;;;;5096746;28;20407;-61
2022/01/02 14:09:09;;;;;;;;;;;14.50;60.90;;;;;;5096453;28;20065;-60
2022/01/02 14:11:35;;;;;;;;;;;14.50;61.10;;;;;;5096506;28;19948;-61
2022/01/02 14:14:10;;;;;;;;;;;14.50;60.90;;;;;;5096779;28;19915;-60
2022/01/02 14:19:32;;;;;;;;;;;14.50;60.90;;;;;;5096261;28;20279;-60
2022/01/02 14:21:59;;;;;;;;;;;14.50;61.00;;;;;;5096423;28;19938;-60
2022/01/02 14:24:25;;;;;;;;;;;14.50;61.00;;;;;;5096227;28;19908;-60
2022/01/02 14:26:50;;;;;;;;;;;14.50;61.00;;;;;;5096383;28;19909;-60
2022/01/02 14:29:16;;;;;;;;;;;14.50;60.90;;;;;;5096118;28;19920;-60